Terminal Aerodrome Forecast
Issued by NWS

Home | Current Version | Previous Version | Text Only | Print | Product List | Glossary On
Versions: 1 2 3 4 5 6 7 8 9 10 11 12 13
000
FTUS45 KABQ 150500
TAFFMN
TAF
KFMN 150535Z 1506/1606 10007KT P6SM SCT120 SCT200
      TEMPO 1506/1509 VRB06KT BKN100
     FM152030 22008KT P6SM SCT090 SCT200
     FM160130 VRB10KT P6SM VCSH BKN080=

USA.gov is the U.S. government's official web portal to all federal, state and local government web resources and services.